Latest Weather Observations for Norah Head

IDN60901

Issued at 6:02 pm EDT Sunday 28 February 2021 (issued every 10 minutes, with the page automatically refreshed every 10 minutes)

About weather observations | Map of Sydney area stations | Latest observations for Sydney area | Other Formats
Station Details ID: 061366 Name: NORAH HEAD AWS Lat: -33.28 Lon: 151.58 Height: 18.8 m
Data from the previous 72 hours. | See also: Recent months at Norah Head
Date/Time
EDT
Temp
°C
App
Temp
°C
Dew
Point
°C
Rel
Hum
%
Delta-T
°C
Wind Press
QNH
hPa
Press
MSL
hPa
Rain since
9am
mm
Dir  Spd
km/h
Gust
km/h
Spd
kts
Gust
kts
28/06:00pm 25.4 28.2 22.3 83 2.1 SSE 11 15 6 8 1009.5 1009.4 0.2
28/05:30pm 25.7 28.2 22.4 82 2.2 SSE 13 15 7 8 1009.7 1009.6 0.2
28/05:00pm 25.5 27.0 22.0 81 2.3 SSE 17 19 9 10 1009.6 1009.5 0.2
28/04:30pm 25.8 26.9 21.9 79 2.6 SSE 19 20 10 11 1009.6 1009.5 0.2
28/04:00pm 25.7 26.0 21.6 78 2.7 SSE 22 24 12 13 1010.0 1009.9 0.2
28/03:30pm 26.1 26.8 21.5 76 3.1 SSE 20 24 11 13 1010.2 1010.1 0.2
28/03:00pm 26.0 26.9 21.9 78 2.7 SSE 20 24 11 13 1010.6 1010.5 0.2
28/02:30pm 25.5 25.8 22.2 82 2.2 S 24 28 13 15 1011.0 1010.9 0.2
28/02:00pm 25.0 24.6 21.7 82 2.2 S 26 30 14 16 1011.5 1011.4 0.2
28/01:30pm 25.2 25.2 21.7 81 2.3 S 24 28 13 15 1011.9 1011.8 0.2
28/01:00pm 24.8 25.0 21.3 81 2.3 S 22 26 12 14 1012.1 1012.0 0.2
28/12:30pm 24.8 25.1 21.5 82 2.2 S 22 28 12 15 1012.4 1012.3 0.2
28/12:00pm 24.4 24.7 21.5 84 1.9 SSW 22 28 12 15 1012.5 1012.4 0.2
28/11:30am 24.5 25.4 22.0 86 1.7 SSW 20 28 11 15 1012.7 1012.6 0.2
28/11:00am 24.1 24.9 22.4 90 1.1 SSW 22 30 12 16 1012.7 1012.6 0.0
28/10:30am 23.5 25.3 22.5 94 0.7 SSW 17 22 9 12 1012.8 1012.7 0.0
28/10:00am 22.6 25.3 22.1 97 0.3 SW 11 19 6 10 1012.6 1012.5 0.0
28/09:30am 22.0 24.5 21.8 99 0.1 SW 11 19 6 10 1012.6 1012.5 0.0
28/09:00am 21.8 24.0 21.8 100 0.0 SW 13 19 7 10 1012.5 1012.4 0.0
28/08:30am 21.6 24.4 21.6 100 0.0 SW 9 13 5 7 1012.2 1012.1 0.0
28/08:00am 20.9 23.3 20.9 100 0.0 WSW 9 13 5 7 1012.0 1011.9 0.0
28/07:30am 20.3 21.7 20.3 100 0.0 W 13 17 7 9 1011.7 1011.6 0.0
28/07:00am 21.0 24.4 21.0 100 0.0 W 4 7 2 4 1011.1 1011.0 0.0
28/06:30am 21.1 25.4 21.1 100 0.0 CALM 0 0 0 0 1010.6 1010.5 0.0
28/06:00am 21.1 25.3 20.9 99 0.1 CALM 0 0 0 0 1010.2 1010.1 0.0
28/05:30am 21.1 25.3 20.9 99 0.1 CALM 0 0 0 0 1010.1 1010.0 0.0
28/05:00am 21.4 24.6 21.2 99 0.1 W 6 7 3 4 1010.2 1010.1 0.0
28/04:30am 21.7 24.8 21.4 98 0.2 W 7 9 4 5 1010.2 1010.1 0.0
28/04:00am 21.7 25.3 21.2 97 0.3 W 4 6 2 3 1010.2 1010.1 0.0
28/03:30am 21.9 25.6 21.4 97 0.3 W 4 7 2 4 1010.5 1010.4 0.0
28/03:00am 21.9 25.2 21.4 97 0.3 W 6 9 3 5 1010.6 1010.5 0.0
28/02:30am 21.7 24.8 21.0 96 0.5 SW 6 9 3 5 1011.0 1010.9 0.0
28/02:00am 22.0 25.2 21.2 95 0.5 WSW 6 7 3 4 1011.2 1011.1 0.0
28/01:30am 22.3 26.4 21.5 95 0.5 WNW 2 6 1 3 1011.5 1011.4 0.0
28/01:00am 22.4 26.5 21.6 95 0.5 NW 2 6 1 3 1011.8 1011.7 0.0
28/12:30am 22.7 26.2 21.9 95 0.5 NW 6 7 3 4 1011.8 1011.7 0.0
28/12:00am 23.0 25.4 22.2 95 0.5 N 13 15 7 8 1011.7 1011.6 0.0
 
Date/Time
EDT
Temp
°C
App
Temp
°C
Dew
Point
°C
Rel
Hum
%
Delta-T
°C
Wind Press
QNH
hPa
Press
MSL
hPa
Rain since
9am
mm
Dir  Spd
km/h
Gust
km/h
Spd
kts
Gust
kts
27/11:30pm 23.1 25.5 22.3 95 0.5 N 13 17 7 9 1011.9 1011.8 0.0
27/11:00pm 23.1 24.3 22.1 94 0.7 NNE 19 24 10 13 1012.1 1012.0 0.0
27/10:30pm 23.1 23.3 22.1 94 0.7 NNE 24 28 13 15 1012.1 1012.0 0.0
27/10:00pm 23.0 22.4 22.0 94 0.7 NNE 28 32 15 17 1011.9 1011.8 0.0
27/09:30pm 22.9 22.5 21.7 93 0.8 NE 26 28 14 15 1011.9 1011.8 0.0
27/09:00pm 22.8 22.8 21.6 93 0.8 NE 24 28 13 15 1011.9 1011.8 0.0
27/08:30pm 22.9 22.0 21.5 92 0.9 NNE 28 33 15 18 1011.6 1011.5 0.0
27/08:00pm 22.7 21.7 21.3 92 0.9 NE 28 32 15 17 1011.3 1011.2 0.0
27/07:30pm 22.6 22.0 21.2 92 0.9 NE 26 30 14 16 1011.2 1011.1 0.0
27/07:00pm 22.4 22.4 21.0 92 0.9 NE 22 28 12 15 1011.0 1010.9 0.0
27/06:30pm 22.2 21.7 20.7 91 1.0 NE 24 30 13 16 1011.1 1011.0 0.0
27/06:00pm 22.4 21.6 20.9 91 1.0 NE 26 32 14 17 1011.0 1010.9 0.0
27/05:30pm 22.3 21.8 20.8 91 1.0 NE 24 30 13 16 1011.1 1011.0 0.0
27/05:00pm 22.4 22.0 20.9 91 1.0 NNE 24 30 13 16 1011.0 1010.9 0.0
27/04:30pm 22.4 22.3 20.7 90 1.1 NE 22 28 12 15 1011.4 1011.3 0.0
27/04:00pm 22.4 24.0 20.7 90 1.1 E 13 15 7 8 1011.7 1011.6 0.0
27/03:30pm 22.4 22.8 20.7 90 1.1 ENE 19 24 10 13 1012.0 1011.9 0.0
27/03:00pm 22.7 22.8 20.4 87 1.5 NE 20 26 11 14 1012.3 1012.2 0.0
27/02:30pm 22.9 23.5 20.2 85 1.7 NE 17 22 9 12 1012.6 1012.5 0.0
27/02:00pm 22.8 23.7 20.1 85 1.7 NE 15 20 8 11 1013.2 1013.1 0.0
27/01:30pm 22.5 23.3 19.9 85 1.7 NNE 15 19 8 10 1013.4 1013.3 0.0
27/01:00pm 22.3 22.6 19.7 85 1.7 NNE 17 20 9 11 1013.7 1013.6 0.0
27/12:30pm 22.4 22.6 20.1 87 1.5 NE 19 26 10 14 1014.1 1014.0 0.0
27/12:00pm 22.2 22.3 19.9 87 1.5 NE 19 28 10 15 1014.1 1014.0 0.0
27/11:30am 22.1 23.3 20.0 88 1.3 ENE 13 19 7 10 1014.3 1014.2 0.0
27/11:00am 21.7 23.2 19.8 89 1.2 NE 11 22 6 12 1014.4 1014.3 0.0
27/10:30am 21.6 22.9 20.1 91 1.0 NE 13 22 7 12 1014.1 1014.0 0.0
27/10:00am 21.6 24.2 20.1 91 1.0 NW 6 9 3 5 1014.3 1014.2 0.0
27/09:30am 21.3 24.2 19.8 91 1.0 NW 4 7 2 4 1014.1 1014.0 0.0
27/09:00am 21.3 23.7 19.6 90 1.1 NNW 6 11 3 6 1013.9 1013.8 0.4
27/08:30am 21.6 23.0 19.5 88 1.3 ENE 11 13 6 7 1013.7 1013.6 0.2
27/08:00am 21.4 22.6 19.1 87 1.5 ENE 11 20 6 11 1013.4 1013.3 0.2
27/07:30am 21.2 22.7 18.8 86 1.5 ENE 9 17 5 9 1013.6 1013.5 0.2
27/07:00am 21.5 22.2 18.9 85 1.6 ESE 13 17 7 9 1013.2 1013.1 0.2
27/06:30am 21.3 22.7 18.7 85 1.6 E 9 13 5 7 1013.1 1013.0 0.2
27/06:00am 21.1 22.4 18.5 85 1.6 E 9 17 5 9 1013.0 1012.9 0.2
27/05:30am 21.1 22.1 18.7 86 1.5 ESE 11 17 6 9 1012.9 1012.8 0.2
27/05:00am 21.1 21.5 18.9 87 1.4 ESE 15 20 8 11 1012.6 1012.5 0.2
27/04:30am 20.9 22.1 19.0 89 1.2 E 11 17 6 9 1012.8 1012.7 0.2
27/04:00am 20.6 21.4 19.1 91 0.9 E 13 15 7 8 1013.1 1013.0 0.2
27/03:30am 20.2 20.1 18.7 91 0.9 SE 17 22 9 12 1013.2 1013.1 0.2
27/03:00am 21.0 21.3 18.8 87 1.4 E 15 20 8 11 1013.4 1013.3 0.2
27/02:30am 20.8 21.0 18.6 87 1.4 ESE 15 19 8 10 1013.5 1013.4 0.0
27/02:00am 20.9 20.4 18.7 87 1.4 E 19 24 10 13 1013.7 1013.6 0.0
27/01:30am 21.6 21.0 18.8 84 1.8 E 20 26 11 14 1014.0 1013.9 0.0
27/01:00am 21.5 20.5 18.9 85 1.6 ESE 22 26 12 14 1014.2 1014.1 0.0
27/12:30am 21.4 20.0 18.8 85 1.6 ESE 24 30 13 16 1014.2 1014.1 0.0
27/12:00am 21.4 19.8 19.1 87 1.5 SE 26 28 14 15 1014.3 1014.2 0.0
 
Date/Time
EDT
Temp
°C
App
Temp
°C
Dew
Point
°C
Rel
Hum
%
Delta-T
°C
Wind Press
QNH
hPa
Press
MSL
hPa
Rain since
9am
mm
Dir  Spd
km/h
Gust
km/h
Spd
kts
Gust
kts
26/11:30pm 21.3 20.2 19.4 89 1.2 ESE 24 28 13 15 1014.5 1014.4 0.0
26/11:00pm 21.1 19.3 19.6 91 1.0 ESE 28 32 15 17 1014.3 1014.2 0.0
26/10:30pm 21.1 18.8 19.4 90 1.1 SE 30 33 16 18 1014.1 1014.0 0.0
26/10:00pm 21.7 18.7 19.1 85 1.6 SE 33 39 18 21 1013.8 1013.7 0.0
26/09:30pm 22.6 20.4 19.6 83 1.9 SE 30 35 16 19 1013.6 1013.5 0.0
26/09:00pm 22.8 21.0 19.6 82 2.0 SE 28 33 15 18 1012.9 1012.8 0.0
26/08:30pm 22.5 20.9 19.1 81 2.2 SE 26 30 14 16 1012.2 1012.1 0.0
26/08:00pm 22.4 21.1 19.0 81 2.2 SE 24 30 13 16 1011.8 1011.7 0.0
26/07:30pm 22.6 21.1 19.4 82 2.0 SSE 26 30 14 16 1011.1 1011.0 0.0
26/07:00pm 22.8 21.7 19.4 81 2.2 SE 24 28 13 15 1010.7 1010.6 0.0
26/06:30pm 23.5 22.5 19.6 79 2.5 SE 24 28 13 15 1010.3 1010.2 0.0
26/06:00pm 24.3 23.6 20.2 78 2.7 SE 24 28 13 15 1009.8 1009.7 0.0
26/05:30pm 24.9 24.6 20.4 76 2.9 SE 22 26 12 14 1009.4 1009.3 0.0
26/05:00pm 25.1 25.2 20.4 75 3.1 SE 20 24 11 13 1009.2 1009.2 0.0
26/04:30pm 26.4 26.8 20.9 72 3.6 SE 20 24 11 13 1009.0 1009.0 0.0
26/04:00pm 26.5 26.8 20.8 71 3.8 SSE 20 24 11 13 1008.9 1008.9 0.0
26/03:30pm 26.9 27.3 21.0 70 3.9 SSE 20 24 11 13 1009.0 1009.0 0.0
26/03:00pm 27.1 27.9 21.4 71 3.8 SE 19 22 10 12 1009.1 1009.1 0.0
26/02:30pm 26.6 27.0 21.8 75 3.2 SSE 22 26 12 14 1009.2 1009.2 0.0
26/02:00pm 26.5 26.8 21.5 74 3.3 SSE 22 26 12 14 1009.5 1009.4 0.0
26/01:30pm 27.3 28.2 22.0 73 3.6 SSE 20 22 11 12 1009.8 1009.7 0.0
26/01:00pm 26.5 27.4 21.5 74 3.3 SSE 19 22 10 12 1010.0 1009.9 0.0
26/12:30pm 25.3 25.6 21.6 80 2.5 SSE 22 26 12 14 1010.2 1010.1 0.0
26/12:00pm 24.7 24.1 21.2 81 2.3 S 26 30 14 16 1010.4 1010.3 0.0
26/11:30am 24.6 24.6 20.9 80 2.4 S 22 28 12 15 1010.6 1010.5 0.0
26/11:00am 24.3 24.6 20.4 79 2.5 S 19 24 10 13 1010.6 1010.5 0.0
26/10:30am 24.4 24.6 20.1 77 2.8 S 19 22 10 12 1010.5 1010.4 0.0
26/10:00am 23.8 24.5 18.9 74 3.1 SSW 13 17 7 9 1010.6 1010.5 0.0
26/09:30am 24.1 26.0 19.0 73 3.2 SW 7 11 4 6 1010.4 1010.3 0.0
26/09:00am 24.1 27.2 19.6 76 2.9 SSW 2 7 1 4 1010.1 1010.0 0.0
26/08:30am 22.4 25.0 19.2 82 2.0 SW 4 9 2 5 1009.8 1009.7 0.0
26/08:00am 21.9 24.3 19.6 87 1.5 SSE 6 9 3 5 1009.5 1009.4 0.0
26/07:30am 20.3 22.7 18.8 91 0.9 WNW 4 7 2 4 1008.9 1008.9 0.0
26/07:00am 19.7 22.0 18.5 93 0.7 WNW 4 7 2 4 1008.5 1008.5 0.0
26/06:30am 19.5 21.8 18.5 94 0.6 W 4 7 2 4 1008.2 1008.2 0.0
26/06:00am 19.8 22.7 19.0 95 0.5 SW 2 6 1 3 1007.8 1007.8 0.0
26/05:30am 19.5 21.9 18.8 96 0.4 WNW 4 7 2 4 1007.6 1007.6 0.0
26/05:00am 19.8 22.0 19.1 96 0.4 SW 6 9 3 5 1007.4 1007.4 0.0
26/04:30am 19.6 22.0 18.8 95 0.5 WNW 4 6 2 3 1007.2 1007.2 0.0
26/04:00am 19.9 21.9 18.7 93 0.8 NW 6 6 3 3 1007.3 1007.3 0.0
26/03:30am 20.4 23.7 19.1 92 0.8 CALM 0 4 0 2 1007.5 1007.5 0.0
26/03:00am 20.6 23.1 19.1 91 0.9 NW 4 9 2 5 1007.6 1007.6 0.0
26/02:30am 20.9 23.0 19.0 89 1.2 WNW 6 9 3 5 1007.7 1007.7 0.0
26/02:00am 21.0 23.2 19.3 90 1.1 WNW 6 11 3 6 1007.7 1007.7 0.0
26/01:30am 20.8 22.2 18.7 88 1.3 NW 9 11 5 6 1007.7 1007.7 0.0
26/01:00am 21.4 23.3 19.0 86 1.5 NNW 7 9 4 5 1008.2 1008.2 0.0
26/12:30am 21.5 22.6 18.9 85 1.6 NNW 11 13 6 7 1008.3 1008.3 0.0
26/12:00am 22.2 21.9 19.6 85 1.7 N 20 22 11 12 1008.2 1008.2 0.0
 
Date/Time
EDT
Temp
°C
App
Temp
°C
Dew
Point
°C
Rel
Hum
%
Delta-T
°C
Wind Press
QNH
hPa
Press
MSL
hPa
Rain since
9am
mm
Dir  Spd
km/h
Gust
km/h
Spd
kts
Gust
kts
25/11:30pm 22.1 21.8 19.6 86 1.6 NNW 20 22 11 12 1008.3 1008.3 0.0
25/11:00pm 21.8 23.7 19.0 84 1.8 NW 7 13 4 7 1008.9 1008.9 0.0
25/10:30pm 22.4 23.6 19.8 85 1.7 NNW 13 17 7 9 1008.9 1008.9 0.0
25/10:00pm 22.5 25.5 20.0 86 1.6 NNW 4 13 2 7 1008.9 1008.9 0.0
25/09:30pm 22.9 21.2 20.6 87 1.5 N 30 37 16 20 1008.4 1008.4 0.0
25/09:00pm 22.5 21.9 20.4 88 1.4 N 24 26 13 14 1008.7 1008.7 0.0
25/08:30pm 22.8 22.4 20.1 85 1.7 N 22 26 12 14 1009.0 1009.0 0.0
25/08:00pm 22.6 22.9 20.3 87 1.5 NNW 19 24 10 13 1009.1 1009.1 0.0
25/07:30pm 22.2 24.4 19.6 85 1.7 NNW 7 9 4 5 1009.1 1009.1 0.0
25/07:00pm 22.7 24.7 19.9 84 1.8 NNW 9 13 5 7 1009.0 1009.0 0.0
25/06:30pm 23.1 23.3 20.2 84 1.9 N 19 22 10 12 1008.8 1008.8 0.0

Latest Capital City Observations: Canberra | Sydney | Melbourne | Brisbane | Adelaide | Perth | Hobart | Darwin

Other formats

Comma delimited format used in spreadsheet applications
http://www.bom.gov.au/fwo/IDN60901/IDN60901.95770.axf

JavaScript Object Notation format (JSON) in row-major order
http://www.bom.gov.au/fwo/IDN60901/IDN60901.95770.json

Data quality

Most of these data are generated automatically and are frequently updated. Quality checks on data are not normally performed. It is possible for incorrect values to appear. Refer to information at About Latest Weather Observations and please check the disclaimer before using these data.